CLT TRACON Summary / KCLT TAF
CLT TRACON Summary:
Expect LIFR/IFR conditions this morning, improving to MVFR/low VFR between 15-17z. Scattered showers and thunderstorms will develop over the Appalachians this afternoon with changces for convection near CLT increasing by 20-21z. Surface winds will be variable from the northwest to southwest at 3-6kts and occasionally calm. No significant flight hazards are expected in the TRACON airspace outside convection.

Updated:9/16/2014 6:45 AM
CLT Terminal Aerodrome Forecast:

FTUS42 KGSP 161100
TAFCLT
TAF
KCLT 161127Z 1612/1712 28003KT 6SM BR OVC005
     FM161400 32003KT P6SM SCT022
      TEMPO 1614/1615 BKN006 BKN023
     FM162000 00000KT P6SM SCT050 PROB30 1621/1703 4SM TSRA BKN040CB
     FM170300 04003KT P6SM BKN050=
CLT TRACON Area Remark:
LIFR/IFR EXPECTED N/S UNTIL 16Z.
Convective Gate Forecast / Collaborative Convective Forecast Product / Vertical Wind Profile
Convective Gate Forecast
-->
AIRMETs & SIGMETS/ Southeast Radar loop / Satellite Image (click on image to enlarge)

Southeast Radar Loop

 



USA.gov is the U.S. government's official web portal to all federal, state and local government web resources and services.